Time;durP1;ratioP1;P1;durP2;ratioP2;P2;SDS_P1;SDS_P2;PMS_P1;PMS_P2;Temp;Humidity;BMP_temperature;BMP_pressure;BME280_temperature;BME280_humidity;BME280_pressure;Samples;Min_cycle;Max_cycle;Signal;HPM_P1;HPM_P2
2021/10/01 00:00:08;;;;;;;10.13;4.13;;;8.90;99.90;;;;;;5070014;28;20426;-55
2021/10/01 00:02:34;;;;;;;9.43;4.60;;;8.90;99.90;;;;;;5070336;28;20901;-55
2021/10/01 00:05:00;;;;;;;12.77;4.50;;;8.80;99.90;;;;;;5069645;28;20386;-55
2021/10/01 00:07:29;;;;;;;10.88;4.40;;;8.90;99.90;;;;;;5070610;28;20384;-55
2021/10/01 00:09:55;;;;;;;12.00;4.60;;;8.80;99.90;;;;;;5069478;28;20400;-55
2021/10/01 00:12:21;;;;;;;10.23;4.30;;;8.80;99.90;;;;;;5070551;28;20380;-54
2021/10/01 00:14:48;;;;;;;8.38;4.10;;;8.80;99.90;;;;;;5070311;28;20379;-55
2021/10/01 00:17:15;;;;;;;9.80;5.10;;;8.90;99.90;;;;;;5069286;28;20396;-55
2021/10/01 00:19:41;;;;;;;8.73;4.85;;;8.90;99.90;;;;;;5070347;28;20397;-55
2021/10/01 00:22:06;;;;;;;10.15;4.55;;;9.00;99.90;;;;;;5069725;28;20391;-55
2021/10/01 00:24:33;;;;;;;11.90;4.65;;;9.00;99.90;;;;;;5070167;28;20380;-55
2021/10/01 00:27:00;;;;;;;8.40;4.15;;;9.00;99.90;;;;;;5069500;28;20470;-55
2021/10/01 00:29:25;;;;;;;10.38;4.30;;;9.10;99.90;;;;;;5070281;28;20892;-55
2021/10/01 00:31:51;;;;;;;10.63;4.73;;;9.00;99.90;;;;;;5069842;28;20384;-57
2021/10/01 00:34:17;;;;;;;8.77;4.00;;;8.90;99.90;;;;;;5069667;28;20372;-55
2021/10/01 00:36:42;;;;;;;9.75;4.15;;;8.80;99.90;;;;;;5070217;28;20383;-54
2021/10/01 00:39:10;;;;;;;14.37;4.70;;;8.80;99.90;;;;;;5069035;28;20502;-55
2021/10/01 00:41:37;;;;;;;9.60;4.20;;;8.90;99.90;;;;;;5069001;28;20391;-55
2021/10/01 00:44:04;;;;;;;8.80;4.30;;;8.90;99.90;;;;;;5068964;28;20379;-55
2021/10/01 00:46:30;;;;;;;9.35;4.85;;;8.90;99.90;;;;;;5070125;28;21155;-55
2021/10/01 00:48:56;;;;;;;10.02;4.38;;;8.80;99.90;;;;;;5069045;28;20375;-55
2021/10/01 00:51:25;;;;;;;11.32;4.60;;;8.70;99.90;;;;;;5069636;28;20391;-54
2021/10/01 00:53:52;;;;;;;9.87;5.10;;;8.60;99.90;;;;;;5069432;28;20376;-57
2021/10/01 00:56:19;;;;;;;10.38;4.43;;;8.60;99.90;;;;;;5069125;28;20425;-55
2021/10/01 00:58:45;;;;;;;9.27;3.75;;;8.70;99.90;;;;;;5069468;28;20463;-55
2021/10/01 01:01:11;;;;;;;10.27;4.47;;;8.70;99.90;;;;;;5068753;28;20490;-55
2021/10/01 01:03:50;;;;;;;8.88;4.40;;;8.70;99.90;;;;;;5069716;28;20905;-55
2021/10/01 01:06:36;;;;;;;9.27;4.40;;;8.70;99.90;;;;;;5068424;28;20586;-55
2021/10/01 01:09:39;;;;;;;12.10;4.80;;;8.80;99.90;;;;;;5069180;28;20849;-55
2021/10/01 01:12:27;;;;;;;8.93;4.40;;;8.70;99.90;;;;;;5068313;28;20714;-55
2021/10/01 01:15:22;;;;;;;12.70;4.97;;;8.70;99.90;;;;;;5069169;28;20467;-57
2021/10/01 01:17:48;;;;;;;8.55;4.22;;;8.60;99.90;;;;;;5068529;28;20754;-55
2021/10/01 01:20:22;;;;;;;9.10;4.57;;;8.60;99.90;;;;;;5068563;28;20407;-55
2021/10/01 01:23:11;;;;;;;10.93;4.60;;;8.50;99.90;;;;;;5069292;28;20380;-55
2021/10/01 01:26:02;;;;;;;10.38;5.10;;;7.00;99.90;;;;;;5069257;28;20396;-54
2021/10/01 01:28:52;;;;;;;10.32;4.65;;;8.50;99.90;;;;;;5069416;28;20442;-55
2021/10/01 01:31:28;;;;;;;11.23;5.00;;;8.50;99.90;;;;;;5067584;28;20892;-55
2021/10/01 01:33:56;;;;;;;12.77;4.55;;;8.50;99.90;;;;;;5069110;28;20387;-56
2021/10/01 01:36:22;;;;;;;9.05;4.35;;;8.50;99.90;;;;;;5069551;28;20430;-54
2021/10/01 01:38:51;;;;;;;11.38;4.40;;;8.50;99.90;;;;;;5070158;28;20376;-54
2021/10/01 01:41:19;;;;;;;12.13;4.70;;;8.50;99.90;;;;;;5072625;28;20433;-55
2021/10/01 01:43:46;;;;;;;11.50;5.20;;;8.50;99.90;;;;;;5073404;28;20391;-55
2021/10/01 01:46:12;;;;;;;10.70;4.85;;;8.60;99.90;;;;;;5072582;28;20654;-55
2021/10/01 01:48:39;;;;;;;10.33;4.93;;;8.50;99.90;;;;;;5073609;28;20483;-55
2021/10/01 01:51:06;;;;;;;10.63;5.20;;;8.60;99.90;;;;;;5072172;28;20394;-55
2021/10/01 01:53:33;;;;;;;12.50;5.25;;;8.50;99.90;;;;;;5071845;28;20410;-55
2021/10/01 01:56:00;;;;;;;9.57;4.93;;;8.60;99.90;;;;;;5072183;28;20387;-53
2021/10/01 01:58:27;;;;;;;10.18;4.80;;;8.50;99.90;;;;;;5073375;28;20387;-55
2021/10/01 02:00:53;;;;;;;10.27;5.13;;;8.60;99.90;;;;;;5072750;28;20403;-55
2021/10/01 02:03:21;;;;;;;8.27;4.60;;;8.50;99.90;;;;;;5072398;28;20382;-53
2021/10/01 02:05:49;;;;;;;12.95;4.47;;;8.30;99.90;;;;;;5073281;28;20430;-54
2021/10/01 02:08:17;;;;;;;10.52;5.38;;;8.20;99.90;;;;;;5072084;28;20437;-54
2021/10/01 02:10:45;;;;;;;10.60;5.32;;;8.10;99.90;;;;;;5072826;28;20406;-55
2021/10/01 02:13:12;;;;;;;11.02;5.00;;;8.10;99.90;;;;;;5072135;28;20395;-53
2021/10/01 02:15:39;;;;;;;10.52;5.35;;;8.00;99.90;;;;;;5072705;28;20451;-54
2021/10/01 02:18:07;;;;;;;11.27;6.00;;;7.90;99.90;;;;;;5071696;28;20375;-54
2021/10/01 02:20:35;;;;;;;11.13;5.47;;;7.90;99.90;;;;;;5072610;28;20403;-54
2021/10/01 02:23:03;;;;;;;11.40;5.80;;;8.00;99.90;;;;;;5071583;28;20390;-55
2021/10/01 02:28:46;;;;;;;9.27;4.90;;;7.90;99.90;;;;;;5071549;28;20395;-54
2021/10/01 02:31:26;;;;;;;9.82;5.32;;;7.90;99.90;;;;;;5070532;28;20391;-55
2021/10/01 02:33:54;;;;;;;10.80;5.37;;;7.80;99.90;;;;;;5072496;28;20379;-54
2021/10/01 02:36:20;;;;;;;10.25;5.10;;;7.80;99.90;;;;;;5071844;28;20479;-54
2021/10/01 02:38:45;;;;;;;10.13;5.13;;;7.80;99.90;;;;;;5071088;28;20852;-53
2021/10/01 02:41:11;;;;;;;8.33;4.33;;;7.70;99.90;;;;;;5071021;28;20869;-54
2021/10/01 02:43:37;;;;;;;11.15;5.40;;;7.70;99.90;;;;;;5072025;28;20379;-52
2021/10/01 02:46:03;;;;;;;10.15;5.22;;;7.60;99.90;;;;;;5071295;28;20383;-54
2021/10/01 02:48:28;;;;;;;10.53;5.27;;;7.60;99.90;;;;;;5071697;28;20376;-53
2021/10/01 02:51:02;;;;;;;12.02;5.30;;;7.60;99.90;;;;;;5071491;28;20380;-56
2021/10/01 02:53:37;;;;;;;8.90;5.30;;;7.50;99.90;;;;;;5071973;28;20441;-53
2021/10/01 02:56:09;;;;;;;12.20;5.82;;;7.50;99.90;;;;;;5071093;28;20402;-53
2021/10/01 02:58:39;;;;;;;11.05;5.68;;;7.40;99.90;;;;;;5071743;28;20400;-53
2021/10/01 03:01:06;;;;;;;9.48;5.10;;;7.50;99.90;;;;;;5070879;28;20399;-54
2021/10/01 03:03:37;;;;;;;10.20;6.00;;;7.20;99.90;;;;;;5071758;28;20837;-53
2021/10/01 03:06:05;;;;;;;10.88;5.80;;;7.20;99.90;;;;;;5070819;28;20380;-53
2021/10/01 03:08:32;;;;;;;11.18;5.70;;;7.10;99.90;;;;;;5071622;28;20458;-53
2021/10/01 03:10:59;;;;;;;11.77;6.53;;;7.10;99.90;;;;;;5071220;28;20387;-56
2021/10/01 03:13:26;;;;;;;13.38;6.35;;;7.20;99.90;;;;;;5071566;28;20376;-53
2021/10/01 03:15:56;;;;;;;11.45;5.90;;;7.10;99.90;;;;;;5071741;28;20373;-53
2021/10/01 03:18:22;;;;;;;12.60;5.70;;;7.20;99.90;;;;;;5070982;28;20422;-54
2021/10/01 03:20:49;;;;;;;10.27;5.70;;;7.20;99.90;;;;;;5071380;28;20415;-53
2021/10/01 03:23:17;;;;;;;14.45;5.95;;;7.30;99.90;;;;;;5070782;28;20374;-54
2021/10/01 03:25:43;;;;;;;9.50;5.80;;;7.30;99.90;;;;;;5070199;28;20783;-54
2021/10/01 03:28:10;;;;;;;13.05;5.97;;;7.40;99.90;;;;;;5070751;28;20514;-53
2021/10/01 03:30:36;;;;;;;13.90;6.32;;;7.50;99.90;;;;;;5071067;28;20380;-53
2021/10/01 03:33:01;;;;;;;11.32;6.20;;;7.50;99.90;;;;;;5070760;28;20521;-54
2021/10/01 03:35:27;;;;;;;12.03;5.80;;;7.60;99.90;;;;;;5071181;28;20835;-54
2021/10/01 03:37:53;;;;;;;12.65;5.55;;;7.60;99.90;;;;;;5071497;28;20384;-54
2021/10/01 03:40:20;;;;;;;11.65;5.80;;;7.70;99.90;;;;;;5070573;28;20490;-53
2021/10/01 03:42:46;;;;;;;13.73;5.57;;;7.70;99.90;;;;;;5070522;28;20388;-53
2021/10/01 03:45:12;;;;;;;10.00;5.40;;;9.50;99.90;;;;;;5069743;28;20501;-54
2021/10/01 03:47:38;;;;;;;11.27;5.80;;;7.80;99.90;;;;;;5071077;28;20376;-54
2021/10/01 03:50:05;;;;;;;12.33;5.63;;;7.80;99.90;;;;;;5070486;28;20876;-53
2021/10/01 03:52:32;;;;;;;12.32;5.25;;;7.80;99.90;;;;;;5070367;28;20783;-52
2021/10/01 03:54:58;;;;;;;8.82;4.70;;;7.80;99.90;;;;;;5070165;28;20375;-54
2021/10/01 03:57:24;;;;;;;12.63;5.50;;;7.80;99.90;;;;;;5070451;28;20517;-53
2021/10/01 03:59:49;;;;;;;11.87;5.60;;;7.90;99.90;;;;;;5070758;28;20416;-55
2021/10/01 04:02:15;;;;;;;10.60;5.88;;;8.00;99.90;;;;;;5069392;28;20376;-54
2021/10/01 04:04:40;;;;;;;11.20;5.97;;;8.00;99.90;;;;;;5070686;28;20468;-54
2021/10/01 04:07:06;;;;;;;10.48;5.97;;;8.00;99.90;;;;;;5069782;28;20471;-54
2021/10/01 04:09:32;;;;;;;11.53;5.50;;;8.00;99.90;;;;;;5070482;28;20380;-55
2021/10/01 04:11:58;;;;;;;12.02;5.70;;;8.10;99.90;;;;;;5070088;28;20380;-57
2021/10/01 04:14:24;;;;;;;11.50;5.75;;;8.10;99.90;;;;;;5070669;28;20426;-54
2021/10/01 04:16:51;;;;;;;12.82;5.55;;;8.10;99.90;;;;;;5070538;28;20382;-55
2021/10/01 04:19:17;;;;;;;10.43;5.50;;;8.10;99.90;;;;;;5069522;28;20509;-54
2021/10/01 04:21:44;;;;;;;9.87;5.40;;;8.10;99.90;;;;;;5076028;28;20484;-54
2021/10/01 04:24:09;;;;;;;9.55;5.55;;;8.10;99.90;;;;;;5074837;28;20451;-55
2021/10/01 04:26:35;;;;;;;10.20;5.25;;;8.10;99.90;;;;;;5081568;28;20820;-54
2021/10/01 04:29:01;;;;;;;10.60;5.37;;;8.00;99.90;;;;;;5075932;28;20395;-53
2021/10/01 04:31:27;;;;;;;10.02;5.00;;;7.90;99.90;;;;;;5082065;28;20484;-54
2021/10/01 04:33:53;;;;;;;10.40;4.93;;;7.90;99.90;;;;;;5083225;28;20709;-54
2021/10/01 04:36:18;;;;;;;10.35;5.60;;;7.90;99.90;;;;;;5074982;28;20455;-54
2021/10/01 04:38:45;;;;;;;10.63;5.30;;;7.90;99.90;;;;;;5070107;28;20376;-53
2021/10/01 04:41:11;;;;;;;11.35;5.13;;;7.90;99.90;;;;;;5071617;28;20407;-54
2021/10/01 04:43:36;;;;;;;11.48;5.32;;;7.90;99.90;;;;;;5078842;28;20380;-54
2021/10/01 04:46:04;;;;;;;11.75;5.60;;;7.90;99.90;;;;;;5069131;28;20741;-55
2021/10/01 04:48:29;;;;;;;11.70;5.40;;;7.90;99.90;;;;;;5070143;28;20387;-54
2021/10/01 04:50:55;;;;;;;11.55;5.47;;;7.90;99.90;;;;;;5075603;28;20394;-55
2021/10/01 04:53:20;;;;;;;10.60;5.13;;;7.90;99.90;;;;;;5088244;28;20390;-55
2021/10/01 04:55:46;;;;;;;12.30;5.40;;;7.90;99.90;;;;;;5089642;28;20393;-55
2021/10/01 04:58:12;;;;;;;9.80;5.30;;;7.90;99.90;;;;;;5089347;28;21216;-54
2021/10/01 05:00:38;;;;;;;13.27;6.20;;;7.90;99.90;;;;;;5089954;28;20531;-55
2021/10/01 05:03:04;;;;;;;10.02;5.22;;;7.80;99.90;;;;;;5088915;28;20512;-54
2021/10/01 05:05:30;;;;;;;11.35;5.35;;;7.90;99.90;;;;;;5089988;28;20504;-54
2021/10/01 05:07:56;;;;;;;10.38;4.50;;;7.90;99.90;;;;;;5089880;28;20374;-54
2021/10/01 05:10:22;;;;;;;9.17;5.10;;;7.90;99.90;;;;;;5089115;28;20382;-54
2021/10/01 05:12:48;;;;;;;10.13;4.75;;;7.90;99.90;;;;;;5089251;28;20732;-54
2021/10/01 05:15:14;;;;;;;10.75;5.10;;;7.90;99.90;;;;;;5088927;28;20390;-54
2021/10/01 05:17:41;;;;;;;10.30;5.00;;;7.80;99.90;;;;;;5089727;28;20378;-54
2021/10/01 05:20:10;;;;;;;10.95;5.00;;;7.70;99.90;;;;;;5087656;28;20410;-54
2021/10/01 05:22:36;;;;;;;10.93;5.20;;;7.70;99.90;;;;;;5089764;28;20432;-57
2021/10/01 05:25:03;;;;;;;11.73;4.72;;;7.70;99.90;;;;;;5090206;28;20452;-55
2021/10/01 05:27:29;;;;;;;10.20;4.70;;;7.60;99.90;;;;;;5090203;28;20707;-54
2021/10/01 05:29:54;;;;;;;10.83;5.23;;;7.60;99.90;;;;;;5089447;28;20501;-54
2021/10/01 05:32:20;;;;;;;9.32;4.97;;;7.60;99.90;;;;;;5089783;28;20474;-54
2021/10/01 05:34:47;;;;;;;12.40;4.80;;;7.50;99.90;;;;;;5086531;28;20369;-52
2021/10/01 05:37:13;;;;;;;12.25;5.20;;;7.50;99.90;;;;;;5101883;28;20385;-53
2021/10/01 05:39:38;;;;;;;8.75;4.70;;;7.50;99.90;;;;;;5100242;28;20408;-54
2021/10/01 05:42:04;;;;;;;18.13;6.50;;;7.70;99.90;;;;;;5091810;28;20438;-52
2021/10/01 05:44:30;;;;;;;11.40;4.90;;;8.00;99.90;;;;;;5089426;28;20397;-55
2021/10/01 05:46:59;;;;;;;9.85;5.00;;;8.10;99.90;;;;;;5088445;28;20485;-55
2021/10/01 05:49:36;;;;;;;11.80;5.70;;;8.10;99.90;;;;;;5079264;28;20401;-55
2021/10/01 05:52:14;;;;;;;13.95;5.30;;;8.00;99.90;;;;;;5088350;28;20382;-55
2021/10/01 05:54:40;;;;;;;11.60;5.50;;;8.10;99.90;;;;;;5089012;28;20393;-54
2021/10/01 05:57:08;;;;;;;11.05;6.05;;;8.20;99.90;;;;;;5088707;28;20402;-54
2021/10/01 05:59:36;;;;;;;12.57;5.97;;;8.20;99.90;;;;;;5088751;28;20509;-54
2021/10/01 06:02:02;;;;;;;11.17;5.77;;;8.60;99.90;;;;;;5088426;28;20413;-54
2021/10/01 06:04:28;;;;;;;9.63;5.50;;;9.00;99.90;;;;;;5088055;28;20426;-54
2021/10/01 06:06:54;;;;;;;10.52;5.80;;;9.30;99.90;;;;;;5088836;28;20729;-54
2021/10/01 06:09:20;;;;;;;12.70;5.43;;;9.50;99.90;;;;;;5088011;28;20394;-55
2021/10/01 06:11:46;;;;;;;12.38;5.22;;;9.90;99.90;;;;;;5089036;28;20389;-53
2021/10/01 06:14:12;;;;;;;9.98;5.40;;;10.60;99.90;;;;;;5087849;28;20378;-53
2021/10/01 06:16:38;;;;;;;12.85;5.10;;;11.30;99.90;;;;;;5088364;28;20797;-53
2021/10/01 06:19:04;;;;;;;11.57;5.17;;;12.20;99.90;;;;;;5087455;28;20418;-52
2021/10/01 06:21:30;;;;;;;11.45;4.72;;;12.70;99.90;;;;;;5087384;28;20726;-52
2021/10/01 06:23:56;;;;;;;14.98;5.15;;;13.00;99.90;;;;;;5088551;28;20416;-54
2021/10/01 06:26:22;;;;;;;10.83;4.70;;;13.00;99.90;;;;;;5090029;28;20429;-55
2021/10/01 06:28:48;;;;;;;12.45;5.20;;;13.20;99.90;;;;;;5092622;28;20382;-55
2021/10/01 06:31:13;;;;;;;11.37;4.70;;;13.60;99.90;;;;;;5092133;28;20382;-56
2021/10/01 06:33:40;;;;;;;12.40;5.03;;;13.90;99.90;;;;;;5092515;28;20410;-55
2021/10/01 06:36:06;;;;;;;10.65;4.80;;;14.40;99.90;;;;;;5089987;28;20386;-55
2021/10/01 06:38:32;;;;;;;10.83;4.70;;;15.00;99.90;;;;;;5092419;28;20385;-54
2021/10/01 06:40:59;;;;;;;10.73;4.97;;;15.60;99.90;;;;;;5092462;28;20421;-54
2021/10/01 06:43:26;;;;;;;15.03;5.37;;;15.70;99.90;;;;;;5091920;28;20377;-54
2021/10/01 06:45:54;;;;;;;11.83;5.20;;;15.50;99.90;;;;;;5092703;28;20507;-54
2021/10/01 07:23:45;;;;;;;11.27;10.10;;;21.10;91.90;;;;;;5090534;28;20456;-55
2021/10/01 08:20:46;;;;;;;11.03;9.90;;;22.60;68.30;;;;;;5090274;28;20409;-56
2021/10/01 08:23:12;;;;;;;11.23;9.48;;;23.80;68.40;;;;;;5089284;28;20831;-56
2021/10/01 08:25:38;;;;;;;10.85;9.75;;;24.60;65.70;;;;;;5090333;28;20440;-56
2021/10/01 08:28:05;;;;;;;11.85;10.70;;;24.60;63.70;;;;;;5089934;28;20388;-57
2021/10/01 08:30:31;;;;;;;16.13;11.10;;;24.50;64.70;;;;;;5090432;28;20374;-56
2021/10/01 08:32:56;;;;;;;13.63;12.20;;;24.70;63.70;;;;;;5089676;28;20416;-56
2021/10/01 08:35:24;;;;;;;12.90;11.13;;;25.10;64.00;;;;;;5089069;28;20882;-56
2021/10/01 08:37:52;;;;;;;12.50;11.38;;;25.80;61.20;;;;;;5088649;28;20811;-56
2021/10/01 08:40:19;;;;;;;11.93;10.73;;;26.00;59.70;;;;;;5089420;28;20437;-57
2021/10/01 08:42:46;;;;;;;11.73;10.63;;;26.00;59.60;;;;;;5090288;28;20415;-57
2021/10/01 08:45:13;;;;;;;10.07;6.40;;;26.60;58.10;;;;;;5089745;28;20439;-56
2021/10/01 08:47:43;;;;;;;8.70;3.40;;;27.20;57.40;;;;;;5088078;28;20386;-56
2021/10/01 08:50:13;;;;;;;8.77;4.00;;;27.70;55.70;;;;;;5089777;28;20472;-57
2021/10/01 08:52:38;;;;;;;8.38;3.67;;;27.20;55.90;;;;;;5089773;28;20480;-57
2021/10/01 08:55:06;;;;;;;8.15;4.53;;;28.70;53.50;;;;;;5089476;28;20437;-59
2021/10/01 08:57:32;;;;;;;6.70;3.40;;;28.40;52.90;;;;;;5088687;28;21157;-57
2021/10/01 09:00:03;;;;;;;8.93;3.63;;;28.90;52.30;;;;;;5089481;28;20493;-57
2021/10/01 09:02:29;;;;;;;8.43;3.53;;;28.80;51.60;;;;;;5089145;28;20409;-58
2021/10/01 09:04:55;;;;;;;7.18;3.35;;;28.60;51.00;;;;;;5089589;28;20433;-57
2021/10/01 09:07:23;;;;;;;9.90;3.22;;;28.70;50.60;;;;;;5087612;28;20382;-58
2021/10/01 09:09:53;;;;;;;8.23;3.60;;;28.30;51.00;;;;;;5089546;28;20552;-57
2021/10/01 09:12:21;;;;;;;9.00;4.95;;;28.10;50.60;;;;;;5088556;28;20440;-55
2021/10/01 09:14:57;;;;;;;11.10;3.65;;;29.60;49.60;;;;;;5089166;28;20385;-58
2021/10/01 09:17:25;;;;;;;8.60;5.17;;;29.90;47.40;;;;;;5088595;28;20450;-58
2021/10/01 09:19:52;;;;;;;7.97;4.70;;;29.10;48.50;;;;;;5089208;28;20406;-57
2021/10/01 09:22:28;;;;;;;7.63;3.40;;;28.60;49.50;;;;;;5088229;28;20413;-57
2021/10/01 09:25:14;;;;;;;8.57;7.32;;;28.60;49.90;;;;;;5089526;28;20440;-56
2021/10/01 09:27:42;;;;;;;8.20;3.40;;;29.50;48.90;;;;;;5088975;28;20402;-56
2021/10/01 09:30:09;;;;;;;8.60;3.60;;;29.70;48.80;;;;;;5088268;28;20426;-58
2021/10/01 09:32:35;;;;;;;7.03;3.60;;;29.60;48.60;;;;;;5089014;28;20396;-57
2021/10/01 09:35:10;;;;;;;11.05;3.65;;;28.90;49.10;;;;;;5089401;28;20385;-57
2021/10/01 09:37:36;;;;;;;13.27;3.90;;;29.00;49.40;;;;;;5089248;28;20473;-58
2021/10/01 09:40:04;;;;;;;8.25;3.63;;;29.40;48.50;;;;;;5088967;28;20497;-56
2021/10/01 09:42:54;;;;;;;7.97;3.78;;;30.00;47.90;;;;;;5088338;28;20473;-56
2021/10/01 09:45:20;;;;;;;9.55;5.95;;;29.80;46.70;;;;;;5088256;28;20833;-58
2021/10/01 09:47:49;;;;;;;8.05;3.25;;;28.90;48.70;;;;;;5088408;28;20443;-58
2021/10/01 09:50:16;;;;;;;11.10;10.07;;;29.00;49.00;;;;;;5088271;28;20431;-56
2021/10/01 09:52:50;;;;;;;13.98;12.77;;;30.00;47.30;;;;;;5088882;28;20390;-56
2021/10/01 09:55:19;;;;;;;10.93;5.32;;;30.00;46.90;;;;;;5087852;28;20876;-57
2021/10/01 09:58:08;;;;;;;7.40;3.42;;;30.30;47.00;;;;;;5088674;28;20752;-57
2021/10/01 10:00:39;;;;;;;6.17;2.50;;;30.10;46.50;;;;;;5091303;28;20433;-58
2021/10/01 10:03:06;;;;;;;9.85;5.63;;;30.00;46.70;;;;;;5092662;28;20405;-59
2021/10/01 10:06:06;;;;;;;9.50;2.90;;;29.20;47.80;;;;;;5092618;28;20374;-57
2021/10/01 10:08:38;;;;;;;8.52;2.83;;;29.60;46.90;;;;;;5093049;28;20427;-57
2021/10/01 10:11:10;;;;;;;10.67;4.50;;;29.60;47.80;;;;;;5092475;28;20469;-57
2021/10/01 10:13:43;;;;;;;8.43;7.53;;;28.70;47.20;;;;;;5092925;28;20392;-57
2021/10/01 10:16:28;;;;;;;9.55;7.38;;;28.50;48.70;;;;;;5091695;28;20386;-58
2021/10/01 10:18:58;;;;;;;9.38;8.45;;;28.10;49.30;;;;;;5092731;28;20417;-57
2021/10/01 10:21:23;;;;;;;9.45;8.45;;;27.80;49.00;;;;;;5092377;28;21165;-57
2021/10/01 10:23:50;;;;;;;10.43;8.90;;;28.20;49.50;;;;;;5092541;28;20460;-57
2021/10/01 10:26:17;;;;;;;9.10;8.20;;;28.90;48.00;;;;;;5092006;28;20386;-58
2021/10/01 10:28:44;;;;;;;8.70;7.50;;;29.60;47.30;;;;;;5092634;28;20397;-58
2021/10/01 10:31:11;;;;;;;10.60;8.52;;;29.60;46.50;;;;;;5091740;28;20890;-58
2021/10/01 10:33:45;;;;;;;9.98;7.55;;;30.00;47.10;;;;;;5092288;28;20378;-57
2021/10/01 10:36:31;;;;;;;7.28;6.00;;;29.50;46.90;;;;;;5090512;28;20863;-58
2021/10/01 10:39:12;;;;;;;7.93;4.60;;;29.60;46.80;;;;;;5092211;28;20874;-57
2021/10/01 10:41:47;;;;;;;11.45;7.65;;;30.10;46.70;;;;;;5091336;28;20785;-57
2021/10/01 10:44:15;;;;;;;9.50;7.40;;;28.90;46.60;;;;;;5091814;28;20406;-58
2021/10/01 10:46:46;;;;;;;6.90;6.15;;;28.70;47.10;;;;;;5090818;28;20713;-57
2021/10/01 10:49:18;;;;;;;7.78;6.45;;;28.90;46.90;;;;;;5091102;28;20855;-58
2021/10/01 10:52:13;;;;;;;8.05;2.20;;;29.00;47.60;;;;;;5092226;28;20397;-57
2021/10/01 10:54:48;;;;;;;7.20;6.50;;;29.40;47.50;;;;;;5091869;28;20455;-57
2021/10/01 10:57:17;;;;;;;8.68;7.10;;;28.40;47.80;;;;;;5091191;28;20493;-57
2021/10/01 10:59:48;;;;;;;8.73;7.18;;;28.30;47.80;;;;;;5091570;28;20402;-57
2021/10/01 11:02:44;;;;;;;8.75;7.40;;;26.50;49.90;;;;;;5090649;28;20382;-57
2021/10/01 11:05:26;;;;;;;9.07;6.20;;;26.80;51.00;;;;;;5091464;28;20467;-58
2021/10/01 11:08:02;;;;;;;8.57;6.63;;;27.70;49.70;;;;;;5091596;28;20386;-57
2021/10/01 11:10:45;;;;;;;8.70;7.20;;;27.60;49.00;;;;;;5090593;28;20382;-57
2021/10/01 11:13:23;;;;;;;7.53;6.82;;;27.90;49.20;;;;;;5090498;28;20446;-57
2021/10/01 11:16:12;;;;;;;8.77;7.65;;;27.20;50.00;;;;;;5091529;28;20378;-57
2021/10/01 11:18:47;;;;;;;7.63;6.93;;;25.60;51.30;;;;;;5091776;28;20383;-57
2021/10/01 11:21:25;;;;;;;6.57;5.88;;;25.10;52.30;;;;;;5090724;28;20414;-57
2021/10/01 11:24:13;;;;;;;6.22;5.63;;;25.20;51.80;;;;;;5091376;28;20390;-57
2021/10/01 11:26:48;;;;;;;6.32;5.30;;;25.00;51.20;;;;;;5091410;28;20394;-57
2021/10/01 11:29:27;;;;;;;6.60;5.90;;;25.10;51.20;;;;;;5089445;28;20442;-57
2021/10/01 11:31:56;;;;;;;6.80;6.20;;;25.30;50.50;;;;;;5091318;28;20839;-57
2021/10/01 11:34:47;;;;;;;6.90;6.30;;;25.00;50.80;;;;;;5090470;28;20382;-57
2021/10/01 11:37:35;;;;;;;7.90;6.70;;;24.30;50.10;;;;;;5091038;28;20405;-57
2021/10/01 11:40:06;;;;;;;6.90;6.20;;;24.50;51.60;;;;;;5091381;28;20460;-56
2021/10/01 11:42:37;;;;;;;7.30;6.60;;;24.70;51.30;;;;;;5090667;28;20420;-57
2021/10/01 11:45:32;;;;;;;7.30;6.60;;;24.70;51.50;;;;;;5091659;28;20378;-57
2021/10/01 11:48:05;;;;;;;8.98;6.10;;;25.00;50.30;;;;;;5091071;28;20381;-57
2021/10/01 11:50:48;;;;;;;7.72;6.20;;;24.70;51.50;;;;;;5090358;28;20469;-56
2021/10/01 11:53:24;;;;;;;6.93;6.10;;;24.50;51.70;;;;;;5090183;28;20374;-57
2021/10/01 11:56:03;;;;;;;6.53;5.93;;;24.40;51.40;;;;;;5090565;28;20394;-57
2021/10/01 11:58:31;;;;;;;8.73;5.93;;;24.50;51.80;;;;;;5090176;28;20381;-57
2021/10/01 12:01:18;;;;;;;6.82;5.20;;;24.40;52.60;;;;;;5091090;28;20412;-56
2021/10/01 12:03:55;;;;;;;6.78;5.60;;;24.60;52.30;;;;;;5090684;28;20843;-57
2021/10/01 12:06:24;;;;;;;7.07;5.60;;;24.50;51.30;;;;;;5090280;28;20369;-57
2021/10/01 12:09:00;;;;;;;6.45;5.35;;;24.40;48.10;;;;;;5090392;28;20370;-56
2021/10/01 12:11:33;;;;;;;6.60;6.00;;;24.40;49.20;;;;;;5089789;28;20386;-56
2021/10/01 12:14:17;;;;;;;7.00;5.03;;;24.60;48.10;;;;;;5090651;28;20471;-56
2021/10/01 12:16:58;;;;;;;6.63;5.93;;;24.90;48.40;;;;;;5090413;28;20844;-56
2021/10/01 12:19:26;;;;;;;6.90;6.13;;;24.90;47.90;;;;;;5089729;28;20409;-56
2021/10/01 12:22:07;;;;;;;7.20;6.50;;;24.70;46.40;;;;;;5090068;28;20374;-56
2021/10/01 12:24:43;;;;;;;6.82;5.80;;;24.40;45.60;;;;;;5089231;28;20382;-56
2021/10/01 12:27:09;;;;;;;7.30;6.30;;;24.20;45.50;;;;;;5090101;28;20390;-56
2021/10/01 12:29:43;;;;;;;7.13;6.43;;;24.20;46.50;;;;;;5089621;28;20843;-56
2021/10/01 12:32:09;;;;;;;6.90;6.20;;;24.40;46.80;;;;;;5089364;28;20377;-56
2021/10/01 12:34:47;;;;;;;7.30;6.60;;;24.30;46.30;;;;;;5088625;28;20374;-56
2021/10/01 12:37:17;;;;;;;6.70;5.70;;;24.10;46.00;;;;;;5089613;28;20829;-56
2021/10/01 12:39:44;;;;;;;7.40;6.70;;;24.10;47.10;;;;;;5089905;28;20405;-56
2021/10/01 12:42:20;;;;;;;7.32;6.32;;;24.00;47.00;;;;;;5088724;28;20381;-57
2021/10/01 12:45:02;;;;;;;7.00;6.40;;;24.20;47.10;;;;;;5090042;28;20740;-56
2021/10/01 12:47:31;;;;;;;7.10;6.40;;;24.30;46.90;;;;;;5088901;28;20453;-56
2021/10/01 12:50:10;;;;;;;7.60;6.90;;;24.20;46.50;;;;;;5089660;28;20459;-56
2021/10/01 12:52:54;;;;;;;8.20;7.50;;;24.00;46.30;;;;;;5089430;28;20378;-56
2021/10/01 12:55:19;;;;;;;7.40;5.80;;;24.10;47.80;;;;;;5088274;28;20382;-56
2021/10/01 12:57:47;;;;;;;8.00;6.50;;;24.20;46.80;;;;;;5089761;28;20721;-57
2021/10/01 13:00:20;;;;;;;7.40;6.60;;;24.00;46.10;;;;;;5088041;28;20518;-57
2021/10/01 13:02:52;;;;;;;7.43;6.50;;;24.30;46.50;;;;;;5089303;28;20381;-57
2021/10/01 13:05:26;;;;;;;9.57;6.82;;;24.40;48.00;;;;;;5088745;28;20856;-57
2021/10/01 13:07:56;;;;;;;7.20;6.50;;;24.30;48.00;;;;;;5089813;28;20382;-57
2021/10/01 13:10:40;;;;;;;7.40;6.50;;;24.10;48.00;;;;;;5088565;28;20435;-57
2021/10/01 13:13:34;;;;;;;6.50;5.80;;;24.20;48.10;;;;;;5088219;28;20480;-57
2021/10/01 13:16:05;;;;;;;8.30;6.30;;;24.50;47.60;;;;;;5086682;28;20397;-56
2021/10/01 13:18:40;;;;;;;6.47;5.88;;;24.60;47.20;;;;;;5088152;28;20988;-56
2021/10/01 13:21:19;;;;;;;6.70;6.00;;;24.90;47.10;;;;;;5089018;28;20916;-56
2021/10/01 13:23:46;;;;;;;6.90;6.20;;;24.90;46.90;;;;;;5089329;28;20428;-56
2021/10/01 13:26:15;;;;;;;6.97;6.27;;;24.70;46.80;;;;;;5088674;28;20473;-59
2021/10/01 13:28:43;;;;;;;6.50;5.40;;;24.60;47.30;;;;;;5088697;28;20407;-57
2021/10/01 13:31:09;;;;;;;7.00;6.30;;;24.50;47.40;;;;;;5089798;28;20507;-56
2021/10/01 13:33:35;;;;;;;7.60;6.10;;;24.50;46.10;;;;;;5089093;28;20377;-57
2021/10/01 13:36:00;;;;;;;6.93;6.23;;;24.50;46.70;;;;;;5088356;28;20387;-56
2021/10/01 13:38:38;;;;;;;6.90;6.30;;;24.50;47.60;;;;;;5088700;28;20397;-57
2021/10/01 13:41:05;;;;;;;7.77;7.07;;;24.70;47.40;;;;;;5088618;28;20501;-56
2021/10/01 13:43:31;;;;;;;6.83;6.13;;;24.70;46.80;;;;;;5086947;28;21015;-56
2021/10/01 13:45:58;;;;;;;8.32;6.50;;;24.70;47.20;;;;;;5088926;28;20366;-56
2021/10/01 13:48:25;;;;;;;7.20;6.50;;;24.80;48.40;;;;;;5087390;28;20385;-57
2021/10/01 13:50:51;;;;;;;7.05;6.40;;;24.80;46.30;;;;;;5087536;28;20739;-57
2021/10/01 13:53:18;;;;;;;7.70;6.60;;;24.70;47.00;;;;;;5086412;28;20765;-57
2021/10/01 13:55:44;;;;;;;7.72;6.68;;;24.30;47.20;;;;;;5088732;28;20436;-57
2021/10/01 13:58:10;;;;;;;6.22;5.63;;;24.30;47.90;;;;;;5089173;28;20386;-57
2021/10/01 14:00:36;;;;;;;7.60;6.20;;;24.40;47.90;;;;;;5088118;28;20410;-57
2021/10/01 14:03:02;;;;;;;7.10;6.40;;;24.40;48.80;;;;;;5088918;28;20712;-57
2021/10/01 14:05:28;;;;;;;7.27;6.00;;;24.30;47.30;;;;;;5088429;28;20724;-57
2021/10/01 14:07:53;;;;;;;6.30;5.70;;;24.40;47.60;;;;;;5087910;28;20382;-57
2021/10/01 14:10:23;;;;;;;7.37;5.80;;;24.50;47.80;;;;;;5088038;28;20417;-55
2021/10/01 14:12:49;;;;;;;7.15;6.45;;;24.80;47.30;;;;;;5089130;28;20789;-56
2021/10/01 14:15:18;;;;;;;7.30;6.60;;;24.80;48.00;;;;;;5087818;28;20374;-56
2021/10/01 14:17:43;;;;;;;8.50;6.80;;;25.00;48.00;;;;;;5089037;28;20398;-56
2021/10/01 14:20:11;;;;;;;7.70;7.00;;;25.10;48.40;;;;;;5088563;28;20445;-56
2021/10/01 14:22:38;;;;;;;10.33;9.33;;;25.10;49.80;;;;;;5088766;28;20408;-56
2021/10/01 14:25:05;;;;;;;7.70;6.90;;;24.90;51.40;;;;;;5088423;28;20378;-55
2021/10/01 14:27:31;;;;;;;7.50;6.80;;;24.80;49.20;;;;;;5087978;28;20378;-56
2021/10/01 14:29:59;;;;;;;9.02;6.82;;;24.60;51.80;;;;;;5088447;28;20735;-56
2021/10/01 14:32:26;;;;;;;8.27;6.70;;;24.50;50.70;;;;;;5087751;28;20516;-56